Hlavní strana
METAR-TAF:

METAR-TAF

Letiště :

Ouagadougou, Burkina Faso

zeměpisná šířka: 12-21N, zeměpisná délka: 001-31W, výška: 316 m

Aktuální stav počasí

Zpráva byla vytvořena před 30 minutami, v 09:00 UTC
Východní vítr 10 kt
Teplota 25°C
Vlhkost vzduchu 17%
Tlak 1017 hPa
Viditelnost: 6000 m

METAR: DFFD 190900Z 10010KT 6000 NSC 25/M02 Q1017 NOSIG

Čas: 09:30 (09:30 UTC)

Předpověď počasí

Zpráva byla vytvořena před 4 hodinami a 30 minutami, v 05:00 UTC
Předpověď platná od 19 v 06 UTC do 20 v 12 UTC
Severovýchodní vítr 10 kt
Viditelnost: 4000 m
rozsáhlý prach
Dočasný
od 19 v 06 UTC do 19 v 11 UTC
Viditelnost: 2000 m
rozsáhlý prach
Změna
od 19 v 20 UTC do 19 v 22 UTC
Viditelnost: 6000 m

TAF: DFFD 190500Z 1906/2012 04010KT 4000 DU NSC TEMPO 1906/1911 2000 DU BECMG 1920/1922 6000 NSW

Stav a předpovědi počasí z více než 4 000 letišť (zprávy METAR a TAF).

Červené a žluté tečky na mapě představují dostupné meteorologické stanice.

Když kurzor umístíte na tečku, zobrazí se název stanice.

Pak kliknutím zobrazíte stav a předpověď počasí.

Chcete-li změnit mapu, kliknutím na zelené tlačítko se znaménkem +mapu přiblížíte, kliknutím na zelené tlačítko se znaménkem – mapu oddálíte a kliknutím na zelené šipky přejdete na sousední mapy.


METAR-TAF: